GosportINWX Station Historical Data
 
Daily Summary for October 15, 2019 Units:  English    Metric   Both
Daily Weekly Monthly Yearly Custom
  Current: High: Low: Average:
Temperature: 63.9 °F 71.3 °F 38.5 °F 53.4 °F
Dew Point: 55.4 °F 55.6 °F 35.7 °F 44.6 °F
Humidity: 74% 92% 50.3% 74%
Wind Speed: 0mph 6.5mph 0mph 0.9mph
Wind Gust: 0mph 22.2mph - -
WindCalm - - South
Pressure: 29.74 in 29.99 in 29.72 in -
Precipitation: 0.00 in      
Historical Graphs
 
 
Tabular Data for October 15, 2019
Time Temperature Dew Point Pressure Wind Wind Speed Wind Gust Humidity Rainfall Rate (Hourly) solar
00:04 42.1 °F 37.3 °F 29.99 in Calm     83% 0.00 in W/m2
00:09 41.9 °F 37.1 °F 29.99 in Calm     83% 0.00 in W/m2
00:14 41.5 °F 36.8 °F 29.99 in Calm     83% 0.00 in W/m2
00:19 41.4 °F 36.6 °F 29.99 in Calm     83% 0.00 in W/m2
00:24 41.4 °F 36.6 °F 29.99 in Calm     83% 0.00 in W/m2
00:29 41.2 °F 36.4 °F 29.99 in Calm     83.1% 0.00 in W/m2
00:34 41.2 °F 36.7 °F 29.99 in Calm     84% 0.00 in W/m2
00:39 41.2 °F 36.7 °F 29.99 in Calm     84% 0.00 in W/m2
00:44 41.1 °F 36.6 °F 29.99 in Calm     84% 0.00 in W/m2
00:49 41 °F 36.5 °F 29.99 in Calm     84% 0.00 in W/m2
00:54 41 °F 36.5 °F 29.99 in Calm     84% 0.00 in W/m2
00:59 40.8 °F 36.7 °F 29.98 in Calm     84.8% 0.00 in W/m2
01:04 40.7 °F 36.6 °F 29.98 in Calm     85% 0.00 in W/m2
01:09 40.6 °F 36.7 °F 29.98 in Calm     85.8% 0.00 in W/m2
01:14 40.5 °F 36.6 °F 29.98 in Calm     86% 0.00 in W/m2
01:19 40.5 °F 36.6 °F 29.98 in Calm     86% 0.00 in W/m2
01:24 40.5 °F 36.6 °F 29.98 in Calm     86% 0.00 in W/m2
01:29 40.4 °F 36.5 °F 29.98 in Calm     86% 0.00 in W/m2
01:34 40.3 °F 36.4 °F 29.97 in Calm     86% 0.00 in W/m2
01:39 40.2 °F 36.3 °F 29.97 in Calm     86% 0.00 in W/m2
01:44 40.1 °F 36.3 °F 29.97 in Calm     86.4% 0.00 in W/m2
01:49 40.1 °F 36.5 °F 29.97 in Calm     87% 0.00 in W/m2
01:54 40 °F 36.4 °F 29.97 in Calm     87% 0.00 in W/m2
01:59 39.8 °F 36.3 °F 29.97 in Calm     87% 0.00 in W/m2
02:04 39.7 °F 36.2 °F 29.97 in Calm     87% 0.00 in W/m2
02:09 39.7 °F 36.1 °F 29.97 in Calm     87% 0.00 in W/m2
02:14 39.4 °F 35.8 °F 29.97 in Calm     87% 0.00 in W/m2
02:19 39.4 °F 35.8 °F 29.97 in Calm     87% 0.00 in W/m2
02:24 39.2 °F 35.7 °F 29.97 in Calm     87% 0.00 in W/m2
02:29 39.2 °F 35.7 °F 29.97 in Calm     87% 0.00 in W/m2
02:34 39 °F 35.8 °F 29.97 in Calm     87.8% 0.00 in W/m2
02:39 39 °F 35.8 °F 29.97 in Calm     88% 0.00 in W/m2
02:44 39 °F 36.1 °F 29.97 in Calm     89% 0.00 in W/m2
02:49 38.9 °F 36 °F 29.97 in Calm     89% 0.00 in W/m2
02:54 39 °F 36.1 °F 29.97 in Calm     89% 0.00 in W/m2
02:59 39 °F 36.1 °F 29.97 in Calm     89% 0.00 in W/m2
03:04 39.1 °F 36 °F 29.97 in Calm     88.7% 0.00 in W/m2
03:09 39.2 °F 35.9 °F 29.97 in Calm     88.2% 0.00 in W/m2
03:14 39.2 °F 36.1 °F 29.97 in Calm     88.8% 0.00 in W/m2
03:19 39.4 °F 36.4 °F 29.97 in Calm     89% 0.00 in W/m2
03:24 39.5 °F 36.5 °F 29.96 in Calm     89% 0.00 in W/m2
03:29 39.7 °F 36.7 °F 29.96 in Calm     89% 0.00 in W/m2
03:34 39.7 °F 37 °F 29.96 in Calm     90% 0.00 in W/m2
03:39 39.7 °F 37 °F 29.96 in Calm     90% 0.00 in W/m2
03:44 39.6 °F 36.9 °F 29.95 in Calm     90% 0.00 in W/m2
03:49 39.6 °F 36.9 °F 29.95 in Calm     90% 0.00 in W/m2
03:54 39.6 °F 36.9 °F 29.95 in Calm     90% 0.00 in W/m2
03:59 39.7 °F 37 °F 29.95 in Calm     90% 0.00 in W/m2
04:04 39.7 °F 37 °F 29.95 in Calm     90% 0.00 in W/m2
04:09 39.7 °F 37 °F 29.95 in Calm     90% 0.00 in W/m2
04:14 39.9 °F 37.4 °F 29.95 in Calm     90.9% 0.00 in W/m2
04:19 39.7 °F 37.3 °F 29.95 in Calm     91% 0.00 in W/m2
04:24 39.6 °F 37 °F 29.95 in East 0.4 mph 3.1 mph 90.3% 0.00 in W/m2
04:29 39.1 °F 36.6 °F 29.95 in Calm   3.1 mph 90.6% 0.00 in W/m2
04:34 38.7 °F 36.3 °F 29.95 in Calm   3.1 mph 91% 0.00 in W/m2
04:39 38.5 °F 36.1 °F 29.95 in Calm     91% 0.00 in W/m2
04:44 38.7 °F 36.3 °F 29.95 in Calm     91% 0.00 in W/m2
04:49 39 °F 36.7 °F 29.94 in Calm     91.4% 0.00 in W/m2
04:54 39.2 °F 36.8 °F 29.94 in Calm     91.1% 0.00 in W/m2
04:59 39.2 °F 36.8 °F 29.95 in Calm   3.1 mph 91% 0.00 in W/m2
05:04 39.3 °F 36.9 °F 29.95 in Calm   3.1 mph 91% 0.00 in W/m2
05:09 39.4 °F 37 °F 29.95 in Calm   3.1 mph 91% 0.00 in W/m2
05:14 39.6 °F 37.2 °F 29.94 in Calm   1.3 mph 91% 0.00 in W/m2
05:19 39.7 °F 37.5 °F 29.94 in Calm   1.3 mph 91.5% 0.00 in W/m2
05:24 39.9 °F 37.8 °F 29.95 in East 0.2 mph 4.4 mph 92% 0.00 in W/m2
05:29 40.1 °F 38 °F 29.94 in Calm   4.4 mph 92% 0.00 in W/m2
05:34 40.3 °F 38.1 °F 29.94 in Calm   4.4 mph 92% 0.00 in W/m2
05:39 40.5 °F 38.3 °F 29.94 in Calm   1.3 mph 92% 0.00 in W/m2
05:44 40.6 °F 38.4 °F 29.94 in Calm   1.3 mph 92% 0.00 in W/m2
05:49 40.7 °F 38.6 °F 29.94 in Calm   3.1 mph 92% 0.00 in W/m2
05:54 40.9 °F 38.6 °F 29.94 in Calm   3.1 mph 91.4% 0.00 in W/m2
05:59 40.8 °F 38.5 °F 29.94 in Calm   3.1 mph 91.5% 0.00 in W/m2
06:04 40.6 °F 38.2 °F 29.94 in Calm   3.1 mph 91% 0.00 in W/m2
06:09 40.6 °F 38.1 °F 29.94 in Calm   1.3 mph 91% 0.00 in W/m2
06:14 40.3 °F 37.7 °F 29.93 in ESE 0.2 mph 4.4 mph 90.4% 0.00 in W/m2
06:19 40.4 °F 37.7 °F 29.93 in Calm   4.4 mph 90% 0.00 in W/m2
06:24 40.5 °F 37.8 °F 29.93 in NE 0.1 mph 4.4 mph 90% 0.00 in W/m2
06:29 40.6 °F 37.9 °F 29.93 in NE 0.3 mph 4.4 mph 90% 0.00 in W/m2
06:34 40.9 °F 38.1 °F 29.93 in NE 0.2 mph 4.4 mph 89.5% 0.00 in W/m2
06:39 41 °F 38 °F 29.93 in NE 0.2 mph 4.4 mph 89% 0.00 in W/m2
06:44 41 °F 38 °F 29.93 in Calm   4.4 mph 88.8% 0.00 in W/m2
06:49 41 °F 37.7 °F 29.93 in Calm   3.1 mph 88% 0.00 in W/m2
06:54 40.9 °F 37.8 °F 29.93 in Calm     88.6% 0.00 in W/m2
06:59 40.6 °F 37.5 °F 29.93 in Calm   1.3 mph 88.3% 0.00 in W/m2
07:04 40.5 °F 37.2 °F 29.93 in Calm   1.3 mph 88% 0.00 in W/m2
07:09 40.3 °F 37 °F 29.93 in Calm   1.3 mph 88% 0.00 in W/m2
07:14 40.3 °F 37 °F 29.93 in Calm     88% 0.00 in W/m2
07:19 40.3 °F 37 °F 29.93 in Calm     88% 0.00 in W/m2
07:24 40.4 °F 37.1 °F 29.93 in Calm     88% 0.00 in W/m2
07:29 40.5 °F 37.2 °F 29.93 in Calm     88% 0.00 in W/m2
07:34 40.5 °F 37.3 °F 29.93 in Calm     88% 0.00 in W/m2
07:39 40.6 °F 37.4 °F 29.93 in Calm     88% 0.00 in W/m2
07:44 40.6 °F 37.4 °F 29.93 in Calm     88% 0.00 in W/m2
07:49 40.6 °F 37.4 °F 29.93 in Calm     88% 0.00 in W/m2
07:54 40.6 °F 37.4 °F 29.92 in Calm     87.8% 0.00 in W/m2
07:59 40.5 °F 37 °F 29.92 in Calm     87% 0.00 in W/m2
08:04 40.5 °F 36.9 °F 29.92 in Calm     87% 0.00 in W/m2
08:09 40.7 °F 37.1 °F 29.92 in Calm     87% 0.00 in W/m2
08:14 41.1 °F 37.5 °F 29.91 in Calm     87% 0.00 in W/m2
08:19 41.2 °F 37.6 °F 29.92 in Calm     87% 0.00 in W/m2
08:24 41.4 °F 37.8 °F 29.91 in Calm     87% 0.00 in W/m2
08:29 41.6 °F 38.1 °F 29.91 in Calm     87% 0.00 in W/m2
08:34 42.1 °F 38.5 °F 29.91 in Calm     87% 0.00 in W/m2
08:39 42.3 °F 38.7 °F 29.91 in Calm     87% 0.00 in W/m2
08:44 42.5 °F 38.9 °F 29.91 in Calm     86.9% 0.00 in W/m2
08:49 43 °F 39.1 °F 29.90 in Calm     86% 0.00 in W/m2
08:54 43.4 °F 39.5 °F 29.90 in Calm     86% 0.00 in W/m2
08:59 44 °F 40 °F 29.90 in East 0.2 mph 4.4 mph 86% 0.00 in W/m2
09:04 44.7 °F 40.4 °F 29.90 in Calm   4.4 mph 84.8% 0.00 in W/m2
09:09 45.2 °F 40.6 °F 29.90 in Calm   4.4 mph 83.9% 0.00 in W/m2
09:14 45.8 °F 40.9 °F 29.90 in ENE 0.2 mph 3.1 mph 83% 0.00 in W/m2
09:19 46.3 °F 41.3 °F 29.90 in NE 0.2 mph 3.1 mph 82.5% 0.00 in W/m2
09:24 46.9 °F 41.5 °F 29.90 in Calm   3.1 mph 81.5% 0.00 in W/m2
09:29 47.4 °F 41.6 °F 29.90 in Calm   3.1 mph 80.3% 0.00 in W/m2
09:34 47.9 °F 42 °F 29.90 in Calm   1.3 mph 80% 0.00 in W/m2
09:39 48.3 °F 41.7 °F 29.90 in Calm     78% 0.00 in W/m2
09:44 48.5 °F 41.9 °F 29.90 in Calm     78% 0.00 in W/m2
09:49 48.7 °F 42.2 °F 29.89 in Calm     78% 0.00 in W/m2
09:54 49.2 °F 42.5 °F 29.89 in Calm     77.9% 0.00 in W/m2
09:59 49.8 °F 42.7 °F 29.89 in SE 0.2 mph 4.4 mph 76.7% 0.00 in W/m2
10:04 50.2 °F 42.9 °F 29.89 in SSE 1.2 mph 4.4 mph 76% 0.00 in W/m2
10:09 50.6 °F 43.2 °F 29.89 in South 0.7 mph 4.4 mph 75.6% 0.00 in W/m2
10:14 51.5 °F 43.9 °F 29.89 in SSE 0.2 mph 4.4 mph 75% 0.00 in W/m2
10:19 52 °F 44 °F 29.89 in ESE 0.1 mph 6.1 mph 74% 0.00 in W/m2
10:24 52.9 °F 44.5 °F 29.88 in ESE 1.9 mph 10.5 mph 73.2% 0.00 in W/m2
10:29 53.9 °F 44.8 °F 29.88 in South 0.2 mph 10.5 mph 71.2% 0.00 in W/m2
10:34 54.6 °F 45.2 °F 29.88 in SSW 0.9 mph 10.5 mph 70.6% 0.00 in W/m2
10:39 55.2 °F 45.1 °F 29.88 in SSE 1.1 mph 7.4 mph 68.8% 0.00 in W/m2
10:44 56 °F 45.1 °F 29.88 in Calm   7.4 mph 66.8% 0.00 in W/m2
10:49 56.6 °F 45.6 °F 29.88 in South 0.2 mph 4.4 mph 66.4% 0.00 in W/m2
10:54 57.2 °F 45.8 °F 29.87 in South 1.3 mph 6.1 mph 65.6% 0.00 in W/m2
10:59 57.9 °F 46.2 °F 29.87 in SE 0.4 mph 6.1 mph 65% 0.00 in W/m2
11:04 58.4 °F 46.7 °F 29.86 in SSE 2.5 mph 8.7 mph 65% 0.00 in W/m2
11:09 59.2 °F 46.8 °F 29.87 in South 2.6 mph 8.7 mph 63.5% 0.00 in W/m2
11:14 59.8 °F 46.9 °F 29.86 in South 1.2 mph 8.7 mph 62.4% 0.00 in W/m2
11:19 60.4 °F 47 °F 29.86 in South 0.5 mph 8.7 mph 61.1% 0.00 in W/m2
11:24 60.8 °F 46.6 °F 29.85 in South 1.8 mph 10.5 mph 59.5% 0.00 in W/m2
11:29 61.2 °F 46.3 °F 29.85 in SSW 3 mph 10.5 mph 58% 0.00 in W/m2
11:34 61.7 °F 46.3 °F 29.85 in SSW 1.5 mph 10.5 mph 57.1% 0.00 in W/m2
11:39 62.2 °F 47.1 °F 29.84 in South 2.7 mph 11.8 mph 57.6% 0.00 in W/m2
11:44 62.7 °F 46.9 °F 29.84 in SSW 2.3 mph 11.8 mph 56.4% 0.00 in W/m2
11:49 63.1 °F 47.6 °F 29.84 in SSW 1.6 mph 11.8 mph 57% 0.00 in W/m2
11:54 63.8 °F 48.3 °F 29.84 in SW 0.4 mph 8.7 mph 57.1% 0.00 in W/m2
11:59 64.5 °F 49.3 °F 29.84 in WSW 0.2 mph 8.7 mph 57.8% 0.00 in W/m2
12:04 64.8 °F 49.6 °F 29.84 in West 1.2 mph 6.1 mph 58% 0.00 in W/m2
12:09 65.2 °F 50.3 °F 29.84 in West 1.8 mph 8.7 mph 58.8% 0.00 in W/m2
12:14 65.9 °F 51.7 °F 29.83 in SW 3.4 mph 11.8 mph 60% 0.00 in W/m2
12:19 66.2 °F 51.4 °F 29.83 in South 4.6 mph 16.1 mph 59% 0.00 in W/m2
12:24 66.2 °F 51.4 °F 29.83 in South 2.9 mph 16.1 mph 59% 0.00 in W/m2
12:29 66.4 °F 52 °F 29.83 in SW 2.8 mph 16.1 mph 59.7% 0.00 in W/m2
12:34 66.5 °F 52.1 °F 29.83 in SSW 3.7 mph 10.5 mph 60% 0.00 in W/m2
12:39 66.6 °F 52.2 °F 29.83 in South 2.4 mph 10.5 mph 60% 0.00 in W/m2
12:44 66.6 °F 52.1 °F 29.82 in South 4.3 mph 13.5 mph 59.6% 0.00 in W/m2
12:49 66.7 °F 52 °F 29.82 in SSW 4.8 mph 13.5 mph 59% 0.00 in W/m2
12:54 67.1 °F 52.3 °F 29.81 in SSW 3 mph 13.5 mph 59% 0.00 in W/m2
12:59 67.6 °F 52.6 °F 29.82 in South 3.2 mph 11.8 mph 58.7% 0.00 in W/m2
13:04 67.8 °F 52.4 °F 29.81 in South 2.5 mph 13.5 mph 57.8% 0.00 in W/m2
13:09 68.1 °F 52.5 °F 29.81 in South 4.2 mph 13.5 mph 57.3% 0.00 in W/m2
13:14 68.4 °F 52.6 °F 29.80 in South 2.7 mph 13.5 mph 57.3% 0.00 in W/m2
13:19 68.6 °F 52.8 °F 29.80 in South 3.9 mph 13.5 mph 57% 0.00 in W/m2
13:24 68.8 °F 52.8 °F 29.80 in South 5 mph 17.9 mph 56.6% 0.00 in W/m2
13:29 69 °F 52.4 °F 29.80 in SSW 5.1 mph 17.9 mph 55.6% 0.00 in W/m2
13:34 69.1 °F 52.3 °F 29.80 in SW 4.5 mph 17.9 mph 55.1% 0.00 in W/m2
13:39 69.3 °F 52.4 °F 29.79 in SSW 3.6 mph 17.9 mph 55% 0.00 in W/m2
13:44 69.5 °F 52.7 °F 29.78 in SSW 3.2 mph 11.8 mph 55% 0.00 in W/m2
13:49 70 °F 52.3 °F 29.78 in SSW 3 mph 13.5 mph 53.6% 0.00 in W/m2
13:54 70.3 °F 52.1 °F 29.79 in SSW 4.9 mph 13.5 mph 52.5% 0.00 in W/m2
13:59 70.5 °F 52 °F 29.79 in South 5.2 mph 14.8 mph 52% 0.00 in W/m2
14:04 70.7 °F 52.2 °F 29.79 in SSW 1.2 mph 14.8 mph 52% 0.00 in W/m2
14:09 70.9 °F 52.4 °F 29.78 in SW 3.5 mph 14.8 mph 52% 0.00 in W/m2
14:14 71.2 °F 52.1 °F 29.78 in SSW 6.5 mph 16.1 mph 50.9% 0.00 in W/m2
14:19 71.2 °F 51.7 °F 29.78 in SSW 3.8 mph 16.1 mph 50.3% 0.00 in W/m2
14:24 70.9 °F 51.8 °F 29.78 in SW 3.5 mph 16.1 mph 50.9% 0.00 in W/m2
14:29 70.4 °F 51.9 °F 29.78 in WSW 3.9 mph 11.8 mph 51.9% 0.00 in W/m2
14:34 70.6 °F 52.1 °F 29.78 in SSW 4.8 mph 11.8 mph 52% 0.00 in W/m2
14:39 71.1 °F 52.7 °F 29.77 in South 3.9 mph 11.8 mph 52.2% 0.00 in W/m2
14:44 71.3 °F 52.8 °F 29.77 in SSW 3.2 mph 11.8 mph 52% 0.00 in W/m2
14:49 71.2 °F 52.6 °F 29.76 in SW 2.8 mph 10.5 mph 52% 0.00 in W/m2
14:54 70.9 °F 52.4 °F 29.76 in SW 5.1 mph 22.2 mph 52% 0.00 in W/m2
14:59 70.6 °F 52.6 °F 29.76 in SW 4.7 mph 22.2 mph 53% 0.00 in W/m2
15:04 70.3 °F 52.4 °F 29.76 in SW 4 mph 22.2 mph 53% 0.00 in W/m2
15:09 70.1 °F 52.1 °F 29.75 in SW 2.8 mph 13.5 mph 53% 0.00 in W/m2
15:14 69.7 °F 52.2 °F 29.76 in SW 3.3 mph 11.8 mph 53.9% 0.00 in W/m2
15:19 69.4 °F 52.5 °F 29.76 in SW 0.9 mph 10.5 mph 55% 0.00 in W/m2
15:24 69.3 °F 52.4 °F 29.75 in SW 1.4 mph 10.5 mph 55.1% 0.00 in W/m2
15:29 69.3 °F 52.9 °F 29.75 in SW 1.2 mph 7.4 mph 56% 0.00 in W/m2
15:34 69.4 °F 53 °F 29.75 in SW 1.9 mph 7.4 mph 56% 0.00 in W/m2
15:39 69.3 °F 52.8 °F 29.74 in SW 1.1 mph 8.7 mph 55.8% 0.00 in W/m2
15:44 69.3 °F 52.8 °F 29.74 in SSW 4.4 mph 13.5 mph 55.8% 0.00 in W/m2
15:49 69.2 °F 52.6 °F 29.74 in SW 2.4 mph 13.5 mph 55.7% 0.00 in W/m2
15:54 69.1 °F 52.4 °F 29.74 in SW 4.2 mph 13.5 mph 55.4% 0.00 in W/m2
15:59 69.1 °F 52.4 °F 29.74 in SW 1.1 mph 13.5 mph 55.3% 0.00 in W/m2
16:04 69.1 °F 52.7 °F 29.74 in SW 1.2 mph 13.5 mph 56% 0.00 in W/m2
16:09 69.1 °F 52.7 °F 29.74 in SW 1.3 mph 4.4 mph 56% 0.00 in W/m2
16:14 69.1 °F 52.6 °F 29.74 in SW 2 mph 10.5 mph 55.8% 0.00 in W/m2
16:19 69.1 °F 52.7 °F 29.74 in SW 2.1 mph 10.5 mph 56% 0.00 in W/m2
16:24 69.1 °F 52.9 °F 29.74 in SW 0.2 mph 10.5 mph 56.4% 0.00 in W/m2
16:29 69.1 °F 53.2 °F 29.74 in SW 2.5 mph 8.7 mph 57% 0.00 in W/m2
16:34 69.1 °F 53.2 °F 29.74 in SW 0.3 mph 7.4 mph 57% 0.00 in W/m2
16:39 69.1 °F 53.2 °F 29.74 in SW 2.2 mph 7.4 mph 57% 0.00 in W/m2
16:44 69.1 °F 53.2 °F 29.74 in WSW 1.5 mph 7.4 mph 57% 0.00 in W/m2
16:49 69.1 °F 53.2 °F 29.74 in SW 1.1 mph 8.7 mph 57% 0.00 in W/m2
16:54 69.1 °F 53.5 °F 29.74 in SSW 1.6 mph 10.5 mph 57.6% 0.00 in W/m2
16:59 69.1 °F 53.7 °F 29.73 in SSW 1.5 mph 10.5 mph 58% 0.00 in W/m2
17:04 68.9 °F 53.5 °F 29.73 in SSW 0.8 mph 10.5 mph 58% 0.00 in W/m2
17:09 69 °F 53.6 °F 29.73 in SW 1.9 mph 10.5 mph 58% 0.00 in W/m2
17:14 69.1 °F 54 °F 29.73 in SW 0.1 mph 6.1 mph 58.8% 0.00 in W/m2
17:19 69 °F 54.1 °F 29.73 in Calm   6.1 mph 59% 0.00 in W/m2
17:24 69 °F 54.4 °F 29.73 in WSW 0.6 mph 6.1 mph 59.8% 0.00 in W/m2
17:29 68.9 °F 54.4 °F 29.72 in SW 0.2 mph 4.4 mph 60% 0.00 in W/m2
17:34 68.8 °F 54.6 °F 29.73 in SSW 0.4 mph 4.4 mph 60.5% 0.00 in W/m2
17:39 68.7 °F 54.7 °F 29.72 in Calm   4.4 mph 61% 0.00 in W/m2
17:44 68.6 °F 54.7 °F 29.73 in Calm   4.4 mph 61% 0.00 in W/m2
17:49 68.5 °F 54.7 °F 29.73 in Calm   4.4 mph 61.3% 0.00 in W/m2
17:54 68.5 °F 55 °F 29.72 in WSW 0.2 mph 4.4 mph 61.9% 0.00 in W/m2
17:59 68.4 °F 54.9 °F 29.72 in Calm   4.4 mph 62% 0.00 in W/m2
18:04 68.4 °F 54.8 °F 29.72 in Calm   4.4 mph 62% 0.00 in W/m2
18:09 68.3 °F 54.9 °F 29.72 in Calm   4.4 mph 62.4% 0.00 in W/m2
18:14 68 °F 54.9 °F 29.72 in Calm   3.1 mph 63% 0.00 in W/m2
18:19 67.9 °F 55.1 °F 29.72 in Calm   3.1 mph 63.7% 0.00 in W/m2
18:24 67.7 °F 55.1 °F 29.72 in Calm   1.3 mph 64% 0.00 in W/m2
18:29 67.6 °F 55.1 °F 29.72 in Calm   3.1 mph 64.3% 0.00 in W/m2
18:34 67.4 °F 55.2 °F 29.72 in Calm   3.1 mph 65% 0.00 in W/m2
18:39 67.1 °F 55 °F 29.72 in Calm   3.1 mph 65% 0.00 in W/m2
18:44 66.7 °F 55 °F 29.72 in Calm     66% 0.00 in W/m2
18:49 66.5 °F 54.8 °F 29.72 in Calm     66.1% 0.00 in W/m2
18:54 66.2 °F 55 °F 29.72 in Calm     67.3% 0.00 in W/m2
18:59 65.8 °F 55.3 °F 29.72 in Calm     68.8% 0.00 in W/m2
19:04 65.4 °F 54.9 °F 29.72 in Calm     69% 0.00 in W/m2
19:09 65.1 °F 55.1 °F 29.73 in Calm   1.3 mph 69.9% 0.00 in W/m2
19:14 64.9 °F 55.3 °F 29.74 in Calm   3.1 mph 70.9% 0.00 in W/m2
19:19 64.9 °F 55.3 °F 29.73 in Calm   3.1 mph 71% 0.00 in W/m2
19:24 64.9 °F 55.3 °F 29.73 in Calm   3.1 mph 71.1% 0.00 in W/m2
19:29 64.8 °F 55.6 °F 29.73 in Calm     72.3% 0.00 in W/m2
19:34 64.4 °F 55.6 °F 29.74 in Calm     73.3% 0.00 in W/m2
19:39 64 °F 55.5 °F 29.74 in Calm     74% 0.00 in W/m2
19:40 63.9 °F 55.4 °F 29.74 in Calm     74% 0.00 in W/m2
Gosport, Indiana, USA
Compliments of Weather Underground - 4 mb